• Join FlightAware (Why Join?)
  • Login
  • US Flag 
04:57AM EDT


 

Airport Tracker/Info


-or-


 

Live Flight TrackerFlight Track Log ✈ DAL390 ✈ 22-Apr-2013 ✈ MMSD / SJD - KATL

Flight Track Log - Related Links

Times and Time Zones

All times are in EDT time to prevent confusion due to time zone crossing. See the DAL390 flight status page for this flight to view local times or setup timezone preferences in your user account.

Time Position Orientation Groundspeed Altitude Reporting Facility
EDT Latitude Longitude Course Direction KTS MPH feet Rate Location/Type
03:26PM 23.3362 -109.3485 62° Northeast  Level FlightAware Approximate
03:27PM 23.3974 -109.2240 62° Northeast  Level FlightAware Approximate
03:28PM 23.4585 -109.0995 62° Northeast  Level FlightAware Approximate
03:29PM 23.5196 -108.9748 62° Northeast  Level FlightAware Approximate
03:30PM 23.5805 -108.8501 62° Northeast  Level FlightAware Approximate
03:31PM 23.6414 -108.7252 62° Northeast  Level FlightAware Approximate
03:31PM 23.1540 -109.1220 62° Northeast 416 479 18,400  Level FlightAware
03:32PM 23.7021 -108.6002 62° Northeast  Level FlightAware Approximate
03:32PM 23.1550 -109.0230 89° East 427 491 20,100  Level FlightAware
03:33PM 23.1560 -108.9410 89° East 436 502 21,400 2,040 Climbing FlightAware
03:33PM 23.1570 -108.8750 89° East 441 507 22,500 2,100 Climbing FlightAware
03:34PM 23.1570 -108.7850 90° East 446 513 23,900 1,860 Climbing FlightAware
03:35PM 23.1580 -108.6810 89° East 459 528 25,200 1,620 Climbing FlightAware
03:35PM 23.1590 -108.6010 89° East 468 539 26,100 1,380 Climbing FlightAware
03:36PM 23.1600 -108.4940 89° East 480 552 27,100 1,320 Climbing FlightAware
03:37PM 23.1610 -108.3860 89° East 491 565 28,100 1,320 Climbing FlightAware
03:38PM 23.1620 -108.2800 89° East 500 575 29,000 1,320 Climbing FlightAware
03:38PM 23.1620 -108.1690 90° East 503 579 30,000 1,440 Climbing FlightAware
03:39PM 23.1630 -108.0690 89° East 500 575 31,100 1,500 Climbing FlightAware
03:40PM 23.1630 -107.9700 90° East 502 578 32,000 1,320 Climbing FlightAware
03:40PM 23.1630 -107.8520 90° East 506 582 33,000 1,380 Climbing FlightAware
03:41PM 23.1640 -107.7510 89° East 506 582 34,000 1,380 Climbing FlightAware
03:42PM 23.1640 -107.6490 90° East 505 581 34,900 1,320 Climbing FlightAware
03:42PM 23.1640 -107.5430 90° East 503 579 35,900 1,200 Climbing FlightAware
03:43PM 23.1640 -107.4220 90° East 505 581 36,700 720 Climbing FlightAware
03:44PM 23.1640 -107.3250 90° East 507 583 37,000 660 Climbing FlightAware
03:45PM 23.1740 -107.1860 85° East 512 589 37,800 900 Climbing FlightAware
03:46PM 23.2110 -107.0730 70° East 513 590 38,500 840 Climbing FlightAware
03:46PM 23.2470 -106.9770 68° East 511 588 39,000 360 Climbing FlightAware
03:47PM 23.2830 -106.8810 68° East 514 592 39,000  Level FlightAware
03:48PM 23.3180 -106.7860 68° East 514 592 39,000  Level FlightAware
03:48PM 23.3600 -106.6810 66° East 516 594 39,000  Level FlightAware
03:49PM 23.4060 -106.5920 61° Northeast 515 593 39,000  Level FlightAware
03:50PM 23.4610 -106.4870 60° Northeast 515 593 39,000  Level FlightAware
03:50PM 23.5080 -106.3980 60° Northeast 514 592 39,000  Level FlightAware
03:51PM 23.5600 -106.2990 60° Northeast 514 592 39,000  Level FlightAware
03:52PM 23.6020 -106.2180 60° Northeast 512 589 39,000  Level FlightAware
03:52PM 23.6530 -106.1200 60° Northeast 511 588 39,000  Level FlightAware
03:53PM 23.7070 -106.0150 61° Northeast 510 587 39,000  Level FlightAware
03:54PM 23.7520 -105.9290 60° Northeast 510 587 39,000  Level FlightAware
03:55PM 23.8000 -105.8370 60° Northeast 510 587 39,000  Level FlightAware
03:55PM 23.8510 -105.7370 61° Northeast 511 588 39,000  Level FlightAware
03:56PM 23.8970 -105.6480 61° Northeast 513 590 39,000  Level FlightAware
03:57PM 23.9500 -105.5440 61° Northeast 513 590 39,000  Level FlightAware
03:57PM 23.9960 -105.4540 61° Northeast 516 594 39,000  Level FlightAware
03:58PM 24.0470 -105.3540 61° Northeast 517 595 39,000  Level FlightAware
03:59PM 24.0940 -105.2620 61° Northeast 518 596 39,000  Level FlightAware
04:00PM 24.1550 -105.1420 61° Northeast 519 597 39,000  Level FlightAware
04:00PM 24.2020 -105.0490 61° Northeast 520 598 39,000  Level FlightAware
04:01PM 24.2420 -104.9710 61° Northeast 520 598 39,000  Level FlightAware
04:02PM 24.3050 -104.8480 61° Northeast 518 596 39,000  Level FlightAware
04:03PM 24.3580 -104.7430 61° Northeast 519 597 39,000  Level FlightAware
04:03PM 24.4030 -104.6530 61° Northeast 519 597 39,000  Level FlightAware
04:04PM 24.4550 -104.5500 61° Northeast 517 595 39,000  Level FlightAware
04:05PM 24.5010 -104.4570 61° Northeast 517 595 39,000  Level FlightAware
04:05PM 24.5480 -104.3640 61° Northeast 518 596 39,000  Level FlightAware
04:06PM 24.6000 -104.2600 61° Northeast 517 595 39,000  Level FlightAware
04:07PM 24.6460 -104.1680 61° Northeast 518 596 39,000  Level FlightAware
04:07PM 24.6900 -104.0850 60° Northeast 519 597 39,000  Level FlightAware
04:08PM 24.7300 -104.0070 61° Northeast 519 597 39,000  Level FlightAware
04:09PM 24.7710 -103.9290 60° Northeast 519 597 39,000  Level FlightAware
04:10PM 24.8220 -103.8320 60° Northeast 519 597 39,000  Level FlightAware
04:10PM 24.8630 -103.7540 60° Northeast 519 597 39,000  Level FlightAware
04:11PM 24.9040 -103.6760 60° Northeast 519 597 39,000  Level FlightAware
04:12PM 24.9450 -103.5980 60° Northeast 519 597 39,000  Level FlightAware
04:12PM 24.9860 -103.5200 60° Northeast 519 597 39,000  Level FlightAware
04:13PM 25.0370 -103.4220 60° Northeast 519 597 39,000  Level FlightAware
04:14PM 25.0770 -103.3440 60° Northeast 519 597 39,000  Level FlightAware
04:14PM 25.1180 -103.2660 60° Northeast 519 597 39,000  Level FlightAware
04:15PM 25.1590 -103.1880 60° Northeast 519 597 39,000  Level FlightAware
04:16PM 25.2000 -103.1100 60° Northeast 519 597 39,000  Level FlightAware
04:17PM 25.2510 -103.0120 60° Northeast 519 597 39,000  Level FlightAware
04:19PM 25.3850 -102.7722 58° Northeast  Level Estimated
04:20PM 25.4530 -102.6500 58° Northeast  Level Estimated
04:21PM 25.5209 -102.5277 58° Northeast  Level Estimated
04:22PM 25.5887 -102.4053 58° Northeast  Level Estimated
04:23PM 25.6564 -102.2827 58° Northeast  Level Estimated
04:24PM 25.7240 -102.1600 59° Northeast  Level Estimated
04:25PM 25.7915 -102.0371 59° Northeast  Level Estimated
04:26PM 25.8589 -101.9141 59° Northeast  Level Estimated
04:27PM 25.9262 -101.7910 59° Northeast  Level Estimated
04:28PM 25.9933 -101.6677 59° Northeast  Level Estimated
04:29PM 26.0604 -101.5443 59° Northeast  Level Estimated
04:30PM 26.1274 -101.4208 59° Northeast  Level Estimated
04:31PM 26.1943 -101.2971 59° Northeast  Level Estimated
04:32PM 26.2610 -101.1732 59° Northeast  Level Estimated
04:33PM 26.3277 -101.0493 59° Northeast  Level Estimated
04:34PM 26.3942 -100.9251 59° Northeast  Level Estimated
04:35PM 26.4606 -100.8009 59° Northeast  Level Estimated
04:36PM 26.5270 -100.6765 59° Northeast  Level Estimated
04:37PM 26.5932 -100.5519 59° Northeast  Level Estimated
04:38PM 26.6593 -100.4272 59° Northeast  Level Estimated
04:39PM 26.7253 -100.3024 59° Northeast  Level Estimated
04:39PM 27.2520 -100.0550 59° Northeast 537 618 39,000  Level FlightAware
04:39PM 27.2850 -99.9640 68° East 537 618 39,000  Level FlightAware
04:40PM 27.3170 -99.8750 68° East 537 618 39,000  Level FlightAware
04:41PM 27.3480 -99.7870 68° East 537 618 39,000  Level FlightAware
04:42PM 27.3880 -99.6770 68° East 537 618 39,000  Level FlightAware
04:42PM 27.4190 -99.5890 68° East 537 618 39,000  Level FlightAware
04:43PM 27.4510 -99.5010 68° East 537 618 39,000  Level FlightAware
04:44PM 27.4830 -99.4120 68° East 537 618 39,000  Level FlightAware
04:44PM 27.5140 -99.3240 68° East 537 618 39,000  Level FlightAware
04:45PM 27.5540 -99.2140 68° East 537 618 39,000  Level FlightAware
04:46PM 27.5850 -99.1250 69° East 537 618 39,000  Level FlightAware
04:46PM 27.6050 -98.8460 85° East 539 620 39,000  Level FlightAware
04:47PM 27.6290 -98.7370 76° East 539 620 39,000  Level FlightAware
04:48PM 27.6500 -98.6440 76° East 539 620 39,000  Level FlightAware
04:49PM 27.6750 -98.5280 76° East 539 620 39,000  Level FlightAware
04:49PM 27.6960 -98.4350 76° East 539 620 39,000  Level FlightAware
04:50PM 27.7160 -98.3420 76° East 539 620 39,000  Level FlightAware
04:51PM 27.7370 -98.2490 76° East 539 620 39,000  Level FlightAware
04:51PM 27.7830 -98.0190 77° East 545 627 39,000  Level FlightAware
04:52PM 27.8100 -97.8930 76° East 547 629 39,000  Level FlightAware
04:53PM 27.8330 -97.7820 77° East 549 632 39,000  Level FlightAware
04:53PM 27.8590 -97.6590 77° East 551 634 39,000  Level FlightAware
04:54PM 27.8830 -97.5450 77° East 552 635 39,000  Level FlightAware
04:55PM 27.9160 -97.4400 70° East 537 618 39,000  Level FlightAware
04:55PM 27.9740 -97.3540 53° Northeast 519 597 39,000  Level FlightAware
04:59PM 28.2740 -96.9600 49° Northeast 514 592 39,000  Level FlightAware
04:59PM 28.3350 -96.8780 50° Northeast 512 589 39,000  Level FlightAware
05:04PM 28.7988 -96.2295 51° Northeast 530 610 39,000  Level FlightAware ADS-B
05:05PM 28.8342 -96.1508 63° Northeast 530 610 39,000  Level FlightAware ADS-B
05:05PM 28.8676 -96.0755 63° Northeast 531 611 39,000  Level FlightAware ADS-B
05:06PM 28.8886 -96.0282 63° Northeast 531 611 39,000  Level FlightAware ADS-B
05:06PM 28.9114 -95.9768 63° Northeast 530 610 39,000  Level FlightAware ADS-B
05:06PM 28.9220 -95.9531 63° Northeast 530 610 39,000  Level FlightAware ADS-B
05:07PM 28.9460 -95.8990 63° Northeast 530 610 39,000  Level FlightAware ADS-B
05:07PM 28.9563 -95.8759 63° Northeast 531 611 39,000  Level FlightAware ADS-B
05:07PM 28.9906 -95.7984 63° Northeast 530 610 39,000  Level FlightAware ADS-B
05:07PM 28.9981 -95.7814 63° Northeast 530 610 39,000  Level FlightAware ADS-B
05:08PM 29.0242 -95.7222 63° Northeast 530 610 39,000  Level FlightAware ADS-B
05:08PM 29.0328 -95.7027 63° Northeast 530 610 39,000  Level FlightAware ADS-B
05:08PM 29.0589 -95.6438 63° Northeast 530 610 39,000  Level FlightAware ADS-B
05:09PM 29.0740 -95.6096 63° Northeast 530 610 39,000  Level FlightAware ADS-B
05:09PM 29.1148 -95.5170 63° Northeast 530 610 39,000  Level FlightAware ADS-B
05:10PM 29.1478 -95.4418 63° Northeast 529 609 39,000  Level FlightAware ADS-B
05:10PM 29.1808 -95.3666 63° Northeast 530 610 39,000  Level FlightAware ADS-B
05:11PM 29.2111 -95.2969 64° Northeast 530 610 39,000  Level FlightAware ADS-B
05:11PM 29.2177 -95.2819 63° Northeast 530 610 39,000  Level FlightAware ADS-B
05:11PM 29.2438 -95.2217 64° Northeast 530 610 39,000  Level FlightAware ADS-B
05:11PM 29.2506 -95.2059 64° Northeast 530 610 39,000  Level FlightAware ADS-B
05:12PM 29.2765 -95.1464 63° Northeast 530 610 39,000  Level FlightAware ADS-B
05:12PM 29.2840 -95.1292 63° Northeast 530 610 39,000  Level FlightAware ADS-B
05:12PM 29.3181 -95.0504 64° Northeast 530 610 39,000  Level FlightAware ADS-B
05:12PM 29.3240 -95.0369 63° Northeast 530 610 39,000  Level FlightAware ADS-B
05:13PM 29.3509 -94.9749 64° Northeast 530 610 39,000  Level FlightAware ADS-B
05:13PM 29.3647 -94.9430 64° Northeast 529 609 39,000  Level FlightAware ADS-B
05:13PM 29.3847 -94.8969 64° Northeast 529 609 39,000  Level FlightAware ADS-B
05:14PM 29.3972 -94.8682 63° Northeast 528 608 39,000  Level FlightAware ADS-B
05:14PM 29.4176 -94.8211 64° Northeast 528 608 39,000  Level FlightAware ADS-B
05:14PM 29.4298 -94.7928 64° Northeast 527 606 39,000  Level FlightAware ADS-B
05:14PM 29.4503 -94.7453 64° Northeast 527 606 39,000  Level FlightAware ADS-B
05:15PM 29.4628 -94.7163 64° Northeast 526 605 39,000  Level FlightAware ADS-B
05:15PM 29.4825 -94.6700 64° Northeast 525 604 39,000  Level FlightAware ADS-B
05:15PM 29.4971 -94.6355 64° Northeast 525 604 39,000  Level FlightAware ADS-B
05:15PM 29.5148 -94.5942 64° Northeast 523 602 39,000  Level FlightAware ADS-B
05:16PM 29.5295 -94.5599 64° Northeast 522 601 39,000  Level FlightAware ADS-B
05:16PM 29.5473 -94.5185 64° Northeast 521 600 39,000  Level FlightAware ADS-B
05:16PM 29.5622 -94.4838 64° Northeast 520 598 39,000  Level FlightAware ADS-B
05:16PM 29.5800 -94.4424 64° Northeast 519 597 39,000  Level FlightAware ADS-B
05:17PM 29.5960 -94.4049 64° Northeast 518 596 39,000  Level FlightAware ADS-B
05:17PM 29.6033 -94.3873 64° Northeast 519 597 39,000  Level FlightAware ADS-B
05:17PM 29.6207 -94.3360 69° East 525 604 39,000  Level FlightAware ADS-B
05:17PM 29.6218 -94.3323 71° East 525 604 39,000  Level FlightAware ADS-B
05:18PM 29.6443 -94.2511 72° East 524 603 39,000  Level FlightAware ADS-B
05:18PM 29.6450 -94.2485 73° East 524 603 39,000  Level FlightAware ADS-B
05:18PM 29.6672 -94.1684 72° East 524 603 39,000  Level FlightAware ADS-B
05:18PM 29.6674 -94.1674 77° East 524 603 39,000  Level FlightAware ADS-B
05:19PM 29.6920 -94.0785 72° East 525 604 39,000  Level FlightAware ADS-B
05:19PM 29.6999 -94.0495 73° East 525 604 39,000  Level FlightAware ADS-B
05:19PM 29.7138 -93.9988 72° East 524 603 39,000  Level FlightAware ADS-B
05:19PM 29.7222 -93.9681 73° East 524 603 39,000  Level FlightAware ADS-B
05:20PM 29.7357 -93.9187 73° East 523 602 39,000  Level FlightAware ADS-B
05:20PM 29.7548 -93.8491 72° East 522 601 39,000  Level FlightAware ADS-B
05:20PM 29.7574 -93.8393 73° East 522 601 39,000  Level FlightAware ADS-B
05:21PM 29.7800 -93.7573 72° East 522 601 39,000  Level FlightAware ADS-B
05:21PM 29.8018 -93.6775 73° East 522 601 39,000  Level FlightAware ADS-B
05:22PM 29.8236 -93.5976 73° East 522 601 39,000  Level FlightAware ADS-B
05:22PM 29.8454 -93.5176 73° East 521 600 39,000  Level FlightAware ADS-B
05:23PM 29.8671 -93.4376 73° East 520 598 39,000  Level FlightAware ADS-B
05:23PM 29.8887 -93.3570 73° East 520 598 39,000  Level FlightAware ADS-B
05:24PM 29.9120 -93.2702 73° East 520 598 39,000  Level FlightAware ADS-B
05:24PM 29.9344 -93.1875 73° East 520 598 39,000  Level FlightAware ADS-B
05:25PM 29.9562 -93.1066 73° East 520 598 39,000  Level FlightAware ADS-B
05:25PM 29.9780 -93.0254 73° East 521 600 39,000  Level FlightAware ADS-B
05:26PM 29.9998 -92.9431 73° East 522 601 39,000  Level FlightAware ADS-B
05:26PM 30.0224 -92.8584 73° East 522 601 39,000  Level FlightAware ADS-B
05:27PM 30.0446 -92.7747 73° East 522 601 39,000  Level FlightAware ADS-B
05:27PM 30.0675 -92.6874 73° East 522 601 39,000  Level FlightAware ADS-B
05:28PM 30.0889 -92.6058 73° East 521 600 39,000  Level FlightAware ADS-B
05:29PM 30.1114 -92.5197 73° East 521 600 39,000  Level FlightAware ADS-B
05:29PM 30.1407 -92.4076 73° East 521 600 39,000  Level FlightAware ADS-B
05:30PM 30.1619 -92.3267 73° East 519 597 39,000  Level FlightAware ADS-B
05:31PM 30.2043 -92.1643 73° East 519 597 39,000  Level FlightAware ADS-B
05:35PM 30.3600 -91.5559 73° East 520 598 39,000  Level FlightAware ADS-B
05:39PM 30.5240 -90.9030 74° East 511 588 39,000  Level FlightAware
05:39PM 30.5510 -90.7930 74° East 507 583 39,000  Level FlightAware
05:40PM 30.5800 -90.6790 74° East 503 579 39,000  Level FlightAware
05:41PM 30.6050 -90.5790 74° East 501 577 39,000  Level FlightAware
05:42PM 30.6340 -90.4580 74° East 498 573 39,000  Level FlightAware
05:42PM 30.6590 -90.3530 75° East 499 574 39,000  Level FlightAware
05:45PM 30.7640 -89.9180 74° East 497 572 39,000  Level FlightAware
05:46PM 30.7910 -89.8050 74° East 496 571 39,000  Level FlightAware
05:46PM 30.8160 -89.7000 74° East 498 573 39,000  Level FlightAware
05:47PM 30.8440 -89.5830 74° East 501 577 39,000  Level FlightAware
05:48PM 30.8690 -89.4770 75° East 505 581 39,000  Level FlightAware
05:49PM 30.8930 -89.3740 75° East 504 580 39,000  Level FlightAware
05:49PM 30.9200 -89.2590 75° East 503 579 39,000  Level FlightAware
05:50PM 30.9440 -89.1550 75° East 503 579 39,000  Level FlightAware
05:51PM 30.9690 -89.0510 74° East 503 579 39,000  Level FlightAware
05:51PM 30.9970 -88.9290 75° East 503 579 39,000  Level FlightAware
05:52PM 31.0210 -88.8230 75° East 503 579 39,000  Level FlightAware
05:53PM 31.0470 -88.7110 75° East 502 578 39,000  Level FlightAware
05:53PM 31.0710 -88.6070 75° East 501 577 39,000  Level FlightAware
05:54PM 31.1010 -88.4940 73° East 495 570 39,000  Level FlightAware
05:55PM 31.1510 -88.4000 58° Northeast 485 558 39,000  Level FlightAware
05:56PM 31.2050 -88.3130 54° Northeast 486 559 39,000  Level FlightAware
05:56PM 31.2570 -88.2280 54° Northeast 486 559 39,000  Level FlightAware
05:57PM 31.3020 -88.1560 54° Northeast 486 559 39,000  Level FlightAware
05:58PM 31.3760 -88.0360 54° Northeast 489 563 39,000  Level FlightAware
05:58PM 31.4280 -87.9500 55° Northeast 490 564 39,000  Level FlightAware
05:59PM 31.4800 -87.8650 54° Northeast 492 566 39,000  Level FlightAware
06:00PM 31.5400 -87.7680 54° Northeast 492 566 39,000 -240 Level FlightAware
06:00PM 31.5910 -87.6840 55° Northeast 488 562 38,700 -780 Descending FlightAware
06:01PM 31.6520 -87.5820 55° Northeast 477 549 37,900 -1,200 Descending FlightAware
06:04PM 31.8690 -87.2250 54° Northeast 496 571 34,600 -1,080 Descending FlightAware
06:05PM 31.9430 -87.1000 55° Northeast 486 559 33,800 -480 Descending FlightAware
06:06PM 31.9870 -87.0260 55° Northeast 486 559 33,800  Level FlightAware
06:10PM 32.2500 -86.5820 55° Northeast 486 559 33,800  Level FlightAware
06:10PM 32.2940 -86.5080 55° Northeast 486 559 33,800  Level FlightAware
06:11PM 32.3380 -86.4340 55° Northeast 486 559 33,800  Level FlightAware
06:12PM 32.3820 -86.3600 55° Northeast 486 559 33,800  Level FlightAware
06:13PM 32.4370 -86.2670 55° Northeast 486 559 33,800  Level FlightAware
06:13PM 32.4800 -86.1930 55° Northeast 486 559 33,800  Level FlightAware
06:14PM 32.5240 -86.1190 55° Northeast 486 559 33,800  Level FlightAware
06:15PM 32.5680 -86.0440 55° Northeast 486 559 33,800 -10,620 Level FlightAware
06:15PM 32.6831 -85.8428 55° Northeast 470 541 24,100 -8,580 Descending Atlanta Center
06:16PM 32.7558 -85.7158 56° Northeast 463 533 23,100 -1,020 Descending Atlanta Center
06:17PM 32.8264 -85.5961 55° Northeast 457 526 22,100 -1,320 Descending Atlanta Center
06:18PM 32.8947 -85.4761 56° Northeast 452 520 20,500 -2,100 Descending Atlanta Center
06:19PM 32.9586 -85.3633 56° Northeast 432 497 18,000 -2,460 Descending Atlanta Center
06:20PM 33.0222 -85.2528 56° Northeast 413 475 15,600 -2,580 Descending Atlanta Center
06:21PM 33.0983 -85.1447 50° Northeast 393 452 12,900 -1,800 Descending Atlanta Center
06:22PM 33.1639 -85.0589 48° Northeast 367 422 12,100 -900 Descending Atlanta Center
06:23PM 33.2250 -84.9775 48° Northeast 330 380 11,200 -1,200 Descending Atlanta Center
06:24PM 33.2797 -84.9036 48° Northeast 306 352 9,800 -1,380 Descending Atlanta Center
06:25PM 33.3347 -84.8294 48° Northeast 295 339 8,500 -1,260 Descending Atlanta Center
06:26PM 33.3933 -84.7678 41° Northeast 277 319 7,300 -960 Descending Atlanta Center
06:32PM 33.6200 -84.5450 41° Northeast 194 223 2,400 -900 Descending FlightAware
06:32PM 33.6200 -84.5160 90° East 176 203 1,900 -960 Descending FlightAware
06:32PM 33.6200 -84.4980 90° East 161 185 1,600 -900 Descending FlightAware